createdAt,value
2023-02-08T00:00:39.858Z,101925.56
2023-02-08T00:01:24.425Z,101921.38
2023-02-08T00:02:06.143Z,101877.97
2023-02-08T00:02:48.160Z,101894.06
2023-02-08T00:03:29.838Z,101896.75
2023-02-08T00:04:11.511Z,101882.13
2023-02-08T00:04:53.168Z,101899.22
2023-02-08T00:05:34.939Z,101916.13
2023-02-08T00:06:17.634Z,101914.44
2023-02-08T00:06:59.382Z,101885.66
2023-02-08T00:07:41.083Z,101912.72
2023-02-08T00:08:22.808Z,101911.03
2023-02-08T00:09:04.536Z,101912.00
2023-02-08T00:09:46.252Z,101911.19
2023-02-08T00:10:28.121Z,101915.56
2023-02-08T00:11:10.756Z,101919.06
2023-02-08T00:11:52.529Z,101892.66
2023-02-08T00:12:34.647Z,101905.47
2023-02-08T00:13:16.846Z,101906.28
2023-02-08T00:13:58.541Z,101914.94
2023-02-08T00:14:40.305Z,101900.47
2023-02-08T00:15:22.396Z,101881.06
2023-02-08T00:16:04.662Z,101887.75
2023-02-08T00:16:46.638Z,101910.84
2023-02-08T00:17:28.747Z,101911.81
2023-02-08T00:18:10.750Z,101890.56
2023-02-08T00:18:52.446Z,101898.28
2023-02-08T00:19:34.087Z,101900.88
2023-02-08T00:20:15.966Z,101894.88
2023-02-08T00:20:57.743Z,101910.91
2023-02-08T00:21:39.564Z,101905.63
2023-02-08T00:22:21.320Z,101862.25
2023-02-08T00:23:02.989Z,101904.66
2023-02-08T00:23:44.927Z,101903.75
2023-02-08T00:24:26.684Z,101878.34
2023-02-08T00:25:08.857Z,101904.47
2023-02-08T00:25:50.736Z,101908.75
2023-02-08T00:26:32.526Z,101878.13
2023-02-08T00:27:14.271Z,101888.31
2023-02-08T00:27:55.918Z,101904.25
2023-02-08T00:28:37.833Z,101898.31
2023-02-08T00:29:19.675Z,101910.25
2023-02-08T00:30:01.464Z,101909.41
2023-02-08T00:30:46.095Z,101889.03
2023-02-08T00:31:29.753Z,101880.56
2023-02-08T00:32:11.533Z,101871.25
2023-02-08T00:32:53.332Z,101888.31
2023-02-08T00:33:35.198Z,101875.41
2023-02-08T00:34:16.904Z,101877.25
2023-02-08T00:34:59.026Z,101905.28
2023-02-08T00:35:42.171Z,101894.09
2023-02-08T00:36:23.824Z,101875.38
2023-02-08T00:37:06.500Z,101907.66
2023-02-08T00:37:48.191Z,101915.41
2023-02-08T00:38:29.895Z,101898.22
2023-02-08T00:39:11.501Z,101887.94
2023-02-08T00:39:53.946Z,101888.81
2023-02-08T00:40:35.731Z,101914.31
2023-02-08T00:41:17.457Z,101870.91
2023-02-08T00:42:01.362Z,101885.53
2023-02-08T00:42:43.387Z,101910.91
2023-02-08T00:43:25.344Z,101876.13
2023-02-08T00:44:07.027Z,101875.31
2023-02-08T00:44:50.337Z,101911.88
2023-02-08T00:45:33.000Z,101892.25
2023-02-08T00:46:14.696Z,101912.81
2023-02-08T00:46:56.355Z,101906.03
2023-02-08T00:47:38.099Z,101914.59
2023-02-08T00:48:19.753Z,101915.47
2023-02-08T00:49:01.470Z,101893.34
2023-02-08T00:49:43.141Z,101898.59
2023-02-08T00:50:25.211Z,101894.28
2023-02-08T00:51:11.869Z,101914.63
2023-02-08T00:51:53.482Z,101892.31
2023-02-08T00:52:35.142Z,101916.13
2023-02-08T00:53:16.779Z,101916.09
2023-02-08T00:53:58.473Z,101908.31
2023-02-08T00:54:41.918Z,101902.19
2023-02-08T00:55:23.653Z,101912.19
2023-02-08T00:56:06.397Z,101908.56
2023-02-08T00:56:48.224Z,101910.16
2023-02-08T00:57:32.147Z,101910.09
2023-02-08T00:58:13.812Z,101881.16
2023-02-08T00:58:55.531Z,101909.16
2023-02-08T00:59:37.324Z,101907.41
2023-02-08T01:00:19.217Z,101904.75
2023-02-08T01:01:01.747Z,101903.91
2023-02-08T01:01:46.039Z,101896.28
2023-02-08T01:02:28.161Z,101866.47
2023-02-08T01:03:10.298Z,101898.91
2023-02-08T01:03:51.933Z,101902.34
2023-02-08T01:04:33.890Z,101898.09
2023-02-08T01:05:15.555Z,101907.63
2023-02-08T01:06:01.568Z,101879.63
2023-02-08T01:06:43.199Z,101896.50
2023-02-08T01:07:26.563Z,101912.06
2023-02-08T01:08:08.246Z,101883.94
2023-02-08T01:08:49.931Z,101873.75
2023-02-08T01:09:32.432Z,101878.84
2023-02-08T01:10:14.208Z,101890.00
2023-02-08T01:11:07.072Z,101890.97
2023-02-08T01:11:48.712Z,101886.63
2023-02-08T01:12:30.743Z,101874.84
2023-02-08T01:13:12.429Z,101898.41
2023-02-08T01:13:57.346Z,101892.41
2023-02-08T01:14:40.043Z,101877.88
2023-02-08T01:15:21.668Z,101894.00
2023-02-08T01:16:18.091Z,101901.44
2023-02-08T01:17:00.015Z,101904.75
2023-02-08T01:17:41.666Z,101874.00
2023-02-08T01:18:23.824Z,101901.09
2023-02-08T01:19:06.301Z,101890.00
2023-02-08T01:19:50.305Z,101901.81
2023-02-08T01:20:36.318Z,101902.50
2023-02-08T01:21:21.804Z,101893.03
2023-02-08T01:22:03.582Z,101897.94
2023-02-08T01:22:45.199Z,101907.97
2023-02-08T01:23:26.853Z,101856.84
2023-02-08T01:24:09.658Z,101901.63
2023-02-08T01:24:51.368Z,101904.13
2023-02-08T01:25:33.035Z,101901.31
2023-02-08T01:26:16.716Z,101898.63
2023-02-08T01:27:00.248Z,101887.53
2023-02-08T01:27:42.223Z,101874.63
2023-02-08T01:28:23.876Z,101909.41
2023-02-08T01:29:05.720Z,101898.09
2023-02-08T01:29:47.374Z,101888.75
2023-02-08T01:30:29.082Z,101899.91
2023-02-08T01:31:14.181Z,101901.66
2023-02-08T01:31:55.947Z,101900.03
2023-02-08T01:32:37.631Z,101898.44
2023-02-08T01:33:19.443Z,101900.31
2023-02-08T01:34:01.827Z,101897.91
2023-02-08T01:34:44.280Z,101864.09
2023-02-08T01:35:26.193Z,101883.00
2023-02-08T01:36:09.029Z,101884.06
2023-02-08T01:36:50.733Z,101895.97
2023-02-08T01:37:32.421Z,101890.03
2023-02-08T01:38:14.021Z,101891.91
2023-02-08T01:38:56.173Z,101894.63
2023-02-08T01:39:39.565Z,101861.38
2023-02-08T01:40:21.242Z,101885.94
2023-02-08T01:41:04.449Z,101862.97
2023-02-08T01:41:46.768Z,101884.19
2023-02-08T01:42:29.743Z,101891.22
2023-02-08T01:43:27.793Z,101880.03
2023-02-08T01:44:12.113Z,101886.03
2023-02-08T01:45:15.567Z,101885.22
2023-02-08T01:45:57.775Z,101871.53
2023-02-08T01:46:44.803Z,101883.59
2023-02-08T01:47:27.432Z,101863.16
2023-02-08T01:48:13.623Z,101881.94
2023-02-08T01:48:59.477Z,101878.56
2023-02-08T01:49:41.128Z,101876.03
2023-02-08T01:50:30.113Z,101870.09
2023-02-08T01:51:17.905Z,101850.69
2023-02-08T01:52:08.772Z,101864.19
2023-02-08T01:52:51.249Z,101832.16
2023-02-08T01:53:34.619Z,101859.31
2023-02-08T01:54:19.274Z,101847.38
2023-02-08T01:55:08.627Z,101811.81
2023-02-08T01:55:53.613Z,101849.34
2023-02-08T01:56:39.086Z,101860.25
2023-02-08T01:57:22.025Z,101868.84
2023-02-08T01:58:07.902Z,101864.44
2023-02-08T01:58:54.040Z,101843.34
2023-02-08T02:00:04.396Z,101864.56
2023-02-08T02:00:55.708Z,101862.19
2023-02-08T02:01:39.173Z,101843.50
2023-02-08T02:02:22.887Z,101859.00
2023-02-08T02:03:06.069Z,101873.53
2023-02-08T02:03:47.776Z,101858.34
2023-02-08T02:04:30.514Z,101871.88
2023-02-08T02:05:13.457Z,101853.94
2023-02-08T02:06:10.101Z,101861.66
2023-02-08T02:06:59.155Z,101860.13
2023-02-08T02:07:41.023Z,101872.09
2023-02-08T02:08:22.777Z,101869.59
2023-02-08T02:09:16.705Z,101863.66
2023-02-08T02:10:01.788Z,101863.69
2023-02-08T02:10:43.913Z,101834.06
2023-02-08T02:11:25.702Z,101863.81
2023-02-08T02:12:09.452Z,101857.03
2023-02-08T02:12:52.217Z,101864.91
2023-02-08T02:13:36.985Z,101862.41
2023-02-08T02:14:18.872Z,101854.06
2023-02-08T02:15:01.919Z,101851.47
2023-02-08T02:15:46.081Z,101861.75
2023-02-08T02:16:27.840Z,101849.84
2023-02-08T02:17:12.509Z,101854.91
2023-02-08T02:17:56.702Z,101854.09
2023-02-08T02:18:38.632Z,101855.03
2023-02-08T02:19:40.200Z,101855.88
2023-02-08T02:20:38.408Z,101814.19
2023-02-08T02:21:32.313Z,101855.06
2023-02-08T02:22:29.081Z,101855.03
2023-02-08T02:23:28.613Z,101842.91
2023-02-08T02:24:39.380Z,101851.50
2023-02-08T02:25:58.630Z,101851.53
2023-02-08T02:27:37.304Z,101842.06
2023-02-08T02:29:13.158Z,101847.25
2023-02-08T02:30:00.770Z,101852.38
2023-02-08T02:31:07.815Z,101843.75
2023-02-08T02:32:04.703Z,101841.91
2023-02-08T02:33:23.060Z,101848.78
2023-02-08T02:34:31.936Z,101837.00
2023-02-08T02:35:52.346Z,101841.97
2023-02-08T02:36:52.589Z,101838.50
2023-02-08T02:37:53.129Z,101843.63
2023-02-08T02:38:47.014Z,101841.91
2023-02-08T02:39:41.354Z,101837.56
2023-02-08T02:40:38.149Z,101822.94
2023-02-08T02:42:00.782Z,101836.44
2023-02-08T02:43:25.723Z,101832.88
2023-02-08T02:44:17.117Z,101801.31
2023-02-08T02:45:11.037Z,101827.47
2023-02-08T02:46:00.517Z,101830.78
2023-02-08T02:46:47.099Z,101814.53
2023-02-08T02:47:43.229Z,101829.66
2023-02-08T02:48:37.073Z,101834.69
2023-02-08T02:49:27.465Z,101810.56
2023-02-08T02:50:14.949Z,101824.84
2023-02-08T02:51:15.151Z,101833.22
2023-02-08T02:52:06.737Z,101815.94
2023-02-08T02:53:18.002Z,101823.38
2023-02-08T02:54:06.691Z,101809.72
2023-02-08T02:54:53.213Z,101821.41
2023-02-08T02:55:41.087Z,101820.69
2023-02-08T02:56:27.123Z,101790.66
2023-02-08T02:57:12.638Z,101830.53
2023-02-08T02:57:57.849Z,101824.59
2023-02-08T02:58:41.065Z,101834.81
2023-02-08T02:59:23.052Z,101824.50
2023-02-08T03:00:10.280Z,101833.16
2023-02-08T03:00:57.867Z,101834.03
2023-02-08T03:01:40.289Z,101833.09
2023-02-08T03:02:22.180Z,101829.59
2023-02-08T03:03:03.826Z,101783.78
2023-02-08T03:03:45.507Z,101829.59
2023-02-08T03:04:33.305Z,101832.19
2023-02-08T03:05:15.069Z,101802.69
2023-02-08T03:06:07.033Z,101835.28
2023-02-08T03:06:48.923Z,101837.16
2023-02-08T03:07:52.216Z,101842.47
2023-02-08T03:08:52.458Z,101840.94
2023-02-08T03:10:03.260Z,101841.22
2023-02-08T03:11:02.896Z,101812.47
2023-02-08T03:12:01.949Z,101830.31
2023-02-08T03:12:56.279Z,101842.50
2023-02-08T03:13:59.615Z,101834.84
2023-02-08T03:15:15.422Z,101837.69
2023-02-08T03:16:26.637Z,101837.84
2023-02-08T03:17:35.326Z,101832.06
2023-02-08T03:18:16.876Z,101836.44
2023-02-08T03:19:22.405Z,101833.03
2023-02-08T03:20:17.731Z,101821.19
2023-02-08T03:21:05.248Z,101831.44
2023-02-08T03:21:55.507Z,101822.13
2023-02-08T03:22:50.811Z,101832.34
2023-02-08T03:23:41.397Z,101828.03
2023-02-08T03:24:29.515Z,101831.53
2023-02-08T03:25:21.248Z,101835.00
2023-02-08T03:26:15.214Z,101824.66
2023-02-08T03:27:08.658Z,101826.19
2023-02-08T03:28:07.513Z,101825.25
2023-02-08T03:29:30.711Z,101827.84
2023-02-08T03:30:17.277Z,101786.13
2023-02-08T03:31:13.033Z,101824.28
2023-02-08T03:32:06.638Z,101827.75
2023-02-08T03:33:05.021Z,101829.41
2023-02-08T03:33:54.151Z,101830.25
2023-02-08T03:34:41.790Z,101831.97
2023-02-08T03:35:37.910Z,101826.06
2023-02-08T03:36:51.725Z,101839.69
2023-02-08T03:37:38.644Z,101838.66
2023-02-08T03:38:34.988Z,101808.72
2023-02-08T03:39:23.886Z,101818.00
2023-02-08T03:40:46.889Z,101835.97
2023-02-08T03:41:34.932Z,101816.44
2023-02-08T03:42:23.113Z,101802.81
2023-02-08T03:43:12.979Z,101831.75
2023-02-08T03:44:00.252Z,101786.81
2023-02-08T03:44:47.605Z,101837.75
2023-02-08T03:45:44.617Z,101835.28
2023-02-08T03:46:34.987Z,101841.16
2023-02-08T03:47:22.154Z,101836.81
2023-02-08T03:48:08.779Z,101800.34
2023-02-08T03:48:57.172Z,101842.06
2023-02-08T03:49:39.400Z,101821.84
2023-02-08T03:50:22.490Z,101852.56
2023-02-08T03:51:05.996Z,101839.63
2023-02-08T03:51:49.226Z,101842.31
2023-02-08T03:52:32.689Z,101825.22
2023-02-08T03:53:19.169Z,101830.25
2023-02-08T03:54:04.781Z,101825.34
2023-02-08T03:55:13.356Z,101831.44
2023-02-08T03:56:03.643Z,101837.38
2023-02-08T03:56:52.456Z,101846.72
2023-02-08T03:57:41.329Z,101839.75
2023-02-08T03:58:32.412Z,101846.63
2023-02-08T03:59:20.169Z,101844.94
2023-02-08T04:00:14.511Z,101852.75
2023-02-08T04:01:03.900Z,101816.25
2023-02-08T04:01:52.230Z,101835.81
2023-02-08T04:02:39.799Z,101836.72
2023-02-08T04:03:27.900Z,101814.72
2023-02-08T04:04:11.481Z,101848.66
2023-02-08T04:04:55.470Z,101843.47
2023-02-08T04:05:37.186Z,101827.50
2023-02-08T04:06:18.815Z,101845.31
2023-02-08T04:07:00.549Z,101860.81
2023-02-08T04:07:42.183Z,101839.34
2023-02-08T04:08:25.740Z,101844.41
2023-02-08T04:09:07.685Z,101841.16
2023-02-08T04:09:49.375Z,101845.31
2023-02-08T04:10:31.113Z,101838.28
2023-02-08T04:11:12.773Z,101813.66
2023-02-08T04:11:54.682Z,101808.56
2023-02-08T04:12:36.498Z,101842.50
2023-02-08T04:13:18.287Z,101845.88
2023-02-08T04:13:59.967Z,101814.41
2023-02-08T04:14:41.642Z,101844.81
2023-02-08T04:15:23.410Z,101851.53
2023-02-08T04:16:05.588Z,101845.59
2023-02-08T04:16:47.307Z,101848.13
2023-02-08T04:17:29.027Z,101830.34
2023-02-08T04:18:10.784Z,101853.38
2023-02-08T04:18:52.398Z,101848.22
2023-02-08T04:19:34.092Z,101792.28
2023-02-08T04:20:15.786Z,101839.03
2023-02-08T04:20:57.567Z,101829.81
2023-02-08T04:21:39.223Z,101842.47
2023-02-08T04:22:20.866Z,101834.72
2023-02-08T04:23:02.481Z,101835.81
2023-02-08T04:23:44.092Z,101816.34
2023-02-08T04:24:25.854Z,101840.00
2023-02-08T04:25:07.656Z,101817.16
2023-02-08T04:25:49.268Z,101834.06
2023-02-08T04:26:30.898Z,101828.78
2023-02-08T04:27:12.811Z,101838.13
2023-02-08T04:27:54.969Z,101834.66
2023-02-08T04:28:36.643Z,101798.00
2023-02-08T04:29:18.479Z,101830.91
2023-02-08T04:30:00.137Z,101824.16
2023-02-08T04:30:42.014Z,101818.16
2023-02-08T04:31:23.980Z,101788.25
2023-02-08T04:32:08.173Z,101821.41
2023-02-08T04:32:49.931Z,101834.88
2023-02-08T04:33:31.603Z,101836.53
2023-02-08T04:34:13.329Z,101808.50
2023-02-08T04:34:55.006Z,101795.72
2023-02-08T04:35:36.683Z,101837.28
2023-02-08T04:36:18.800Z,101825.41
2023-02-08T04:37:00.638Z,101834.84
2023-02-08T04:37:42.243Z,101814.47
2023-02-08T04:38:23.891Z,101844.19
2023-02-08T04:39:05.804Z,101842.56
2023-02-08T04:39:47.499Z,101833.03
2023-02-08T04:40:29.356Z,101828.16
2023-02-08T04:41:11.411Z,101845.22
2023-02-08T04:41:53.070Z,101828.97
2023-02-08T04:42:35.198Z,101796.72
2023-02-08T04:43:16.853Z,101788.34
2023-02-08T04:43:58.574Z,101836.06
2023-02-08T04:44:40.350Z,101829.34
2023-02-08T04:45:22.065Z,101836.31
2023-02-08T04:46:04.140Z,101815.97
2023-02-08T04:46:45.865Z,101827.69
2023-02-08T04:47:27.447Z,101828.47
2023-02-08T04:48:10.478Z,101828.53
2023-02-08T04:48:53.460Z,101823.38
2023-02-08T04:49:35.127Z,101825.16
2023-02-08T04:50:17.013Z,101811.72
2023-02-08T04:50:59.176Z,101833.00
2023-02-08T04:51:40.901Z,101827.00
2023-02-08T04:52:22.848Z,101831.25
2023-02-08T04:53:04.507Z,101826.09
2023-02-08T04:53:46.245Z,101799.66
2023-02-08T04:54:28.137Z,101822.41
2023-02-08T04:55:09.884Z,101820.59
2023-02-08T04:55:52.157Z,101796.81
2023-02-08T04:56:33.806Z,101804.28
2023-02-08T04:57:15.665Z,101811.22
2023-02-08T04:57:57.901Z,101810.38
2023-02-08T04:58:39.569Z,101814.63
2023-02-08T04:59:21.224Z,101830.06
2023-02-08T05:00:03.974Z,101831.84
2023-02-08T05:00:46.089Z,101819.75
2023-02-08T05:01:27.762Z,101822.28
2023-02-08T05:02:09.880Z,101802.75
2023-02-08T05:02:57.089Z,101822.28
2023-02-08T05:03:38.847Z,101829.13
2023-02-08T05:04:20.600Z,101818.72
2023-02-08T05:05:02.321Z,101794.13
2023-02-08T05:05:44.057Z,101822.75
2023-02-08T05:06:25.850Z,101798.06
2023-02-08T05:07:07.497Z,101823.31
2023-02-08T05:07:49.211Z,101828.31
2023-02-08T05:08:30.902Z,101796.63
2023-02-08T05:09:12.515Z,101815.94
2023-02-08T05:09:54.143Z,101820.19
2023-02-08T05:10:35.797Z,101811.47
2023-02-08T05:11:25.456Z,101807.88
2023-02-08T05:12:07.186Z,101808.66
2023-02-08T05:12:48.863Z,101818.13
2023-02-08T05:13:30.939Z,101784.06
2023-02-08T05:14:12.605Z,101820.66
2023-02-08T05:14:54.271Z,101779.03
2023-02-08T05:15:35.950Z,101815.44
2023-02-08T05:16:17.671Z,101817.09
2023-02-08T05:16:59.420Z,101801.88
2023-02-08T05:17:41.202Z,101822.28
2023-02-08T05:18:22.908Z,101817.16
2023-02-08T05:19:04.564Z,101788.41
2023-02-08T05:19:46.238Z,101797.91
2023-02-08T05:20:28.295Z,101804.56
2023-02-08T05:21:10.541Z,101822.38
2023-02-08T05:21:52.267Z,101788.50
2023-02-08T05:22:34.210Z,101817.25
2023-02-08T05:23:15.860Z,101794.28
2023-02-08T05:23:57.508Z,101788.38
2023-02-08T05:24:39.195Z,101821.41
2023-02-08T05:25:20.934Z,101819.66
2023-02-08T05:26:10.303Z,101808.59
2023-02-08T05:26:52.171Z,101824.81
2023-02-08T05:27:34.964Z,101798.41
2023-02-08T05:28:17.355Z,101799.25
2023-02-08T05:28:59.126Z,101800.94
2023-02-08T05:29:40.810Z,101796.66
2023-02-08T05:30:22.631Z,101818.63
2023-02-08T05:31:24.940Z,101824.63
2023-02-08T05:32:07.407Z,101808.56
2023-02-08T05:32:49.334Z,101826.41
2023-02-08T05:33:31.005Z,101817.06
2023-02-08T05:34:12.712Z,101828.25
2023-02-08T05:34:54.460Z,101825.66
2023-02-08T05:35:36.161Z,101824.81
2023-02-08T05:36:19.015Z,101801.88
2023-02-08T05:37:00.656Z,101819.84
2023-02-08T05:37:42.421Z,101808.03
2023-02-08T05:38:24.025Z,101829.94
2023-02-08T05:39:06.072Z,101839.47
2023-02-08T05:39:47.714Z,101823.47
2023-02-08T05:40:29.553Z,101817.50
2023-02-08T05:41:11.258Z,101833.56
2023-02-08T05:41:52.924Z,101834.47
2023-02-08T05:42:34.601Z,101808.97
2023-02-08T05:43:16.433Z,101815.03
2023-02-08T05:43:58.223Z,101828.66
2023-02-08T05:44:39.976Z,101809.06
2023-02-08T05:45:21.903Z,101830.31
2023-02-08T05:46:03.703Z,101812.50
2023-02-08T05:46:45.345Z,101819.03
2023-02-08T05:47:27.123Z,101828.66
2023-02-08T05:48:08.739Z,101801.28
2023-02-08T05:48:50.403Z,101799.66
2023-02-08T05:49:32.179Z,101826.06
2023-02-08T05:50:14.486Z,101823.50
2023-02-08T05:50:56.829Z,101811.81
2023-02-08T05:51:38.592Z,101793.16
2023-02-08T05:52:20.278Z,101809.19
2023-02-08T05:53:02.074Z,101798.09
2023-02-08T05:53:45.341Z,101826.22
2023-02-08T05:54:27.100Z,101825.19
2023-02-08T05:55:08.994Z,101824.31
2023-02-08T05:55:50.925Z,101817.50
2023-02-08T05:56:33.081Z,101825.06
2023-02-08T05:57:14.892Z,101822.59
2023-02-08T05:57:56.551Z,101829.41
2023-02-08T05:58:38.306Z,101802.28
2023-02-08T05:59:19.999Z,101833.88
2023-02-08T06:00:01.727Z,101827.00
2023-02-08T06:00:43.805Z,101815.09
2023-02-08T06:01:25.479Z,101831.34
2023-02-08T06:02:07.240Z,101798.88
2023-02-08T06:02:49.107Z,101824.22
2023-02-08T06:03:30.812Z,101823.34
2023-02-08T06:04:12.732Z,101836.16
2023-02-08T06:04:54.474Z,101818.09
2023-02-08T06:05:38.640Z,101823.72
2023-02-08T06:06:20.964Z,101819.25
2023-02-08T06:07:02.689Z,101811.09
2023-02-08T06:07:44.370Z,101799.81
2023-02-08T06:08:26.067Z,101796.94
2023-02-08T06:09:07.775Z,101825.56
2023-02-08T06:09:49.430Z,101831.16
2023-02-08T06:10:31.141Z,101829.28
2023-02-08T06:11:13.395Z,101830.16
2023-02-08T06:11:55.031Z,101816.16
2023-02-08T06:12:36.698Z,101832.34
2023-02-08T06:13:18.340Z,101821.50
2023-02-08T06:14:00.172Z,101827.47
2023-02-08T06:14:41.970Z,101837.88
2023-02-08T06:15:23.683Z,101838.72
2023-02-08T06:16:06.721Z,101838.50
2023-02-08T06:16:48.590Z,101815.28
2023-02-08T06:17:30.344Z,101807.41
2023-02-08T06:18:12.022Z,101837.00
2023-02-08T06:18:53.673Z,101828.63
2023-02-08T06:19:35.307Z,101836.50
2023-02-08T06:20:17.250Z,101843.53
2023-02-08T06:20:58.936Z,101822.28
2023-02-08T06:21:42.138Z,101837.69
2023-02-08T06:22:24.530Z,101832.69
2023-02-08T06:23:06.221Z,101803.94
2023-02-08T06:23:47.893Z,101821.22
2023-02-08T06:24:29.681Z,101834.91
2023-02-08T06:25:11.471Z,101824.06
2023-02-08T06:25:53.569Z,101840.41
2023-02-08T06:26:35.325Z,101803.06
2023-02-08T06:27:17.288Z,101814.47
2023-02-08T06:27:58.947Z,101841.66
2023-02-08T06:28:40.664Z,101839.97
2023-02-08T06:29:22.452Z,101822.84
2023-02-08T06:30:04.460Z,101840.69
2023-02-08T06:30:46.322Z,101832.91
2023-02-08T06:31:28.104Z,101833.81
2023-02-08T06:32:11.427Z,101839.50
2023-02-08T06:32:53.132Z,101842.88
2023-02-08T06:33:34.940Z,101804.56
2023-02-08T06:34:16.678Z,101843.72
2023-02-08T06:34:58.388Z,101817.50
2023-02-08T06:35:40.022Z,101842.88
2023-02-08T06:36:21.744Z,101833.28
2023-02-08T06:37:05.588Z,101825.59
2023-02-08T06:37:47.264Z,101802.88
2023-02-08T06:38:28.956Z,101842.88
2023-02-08T06:39:10.573Z,101844.59
2023-02-08T06:39:52.214Z,101846.50
2023-02-08T06:40:33.834Z,101854.16
2023-02-08T06:41:15.617Z,101834.50
2023-02-08T06:41:57.631Z,101846.28
2023-02-08T06:42:39.318Z,101848.78
2023-02-08T06:43:21.016Z,101816.47
2023-02-08T06:44:02.791Z,101841.00
2023-02-08T06:44:54.476Z,101838.53
2023-02-08T06:45:36.579Z,101823.22
2023-02-08T06:46:18.351Z,101839.28
2023-02-08T06:47:00.100Z,101825.59
2023-02-08T06:47:42.116Z,101844.03
2023-02-08T06:48:23.909Z,101832.78
2023-02-08T06:49:05.610Z,101846.94
2023-02-08T06:49:47.280Z,101844.22
2023-02-08T06:50:28.957Z,101848.50
2023-02-08T06:51:10.572Z,101837.31
2023-02-08T06:51:52.235Z,101856.00
2023-02-08T06:52:33.912Z,101860.41
2023-02-08T06:53:15.595Z,101843.66
2023-02-08T06:53:57.235Z,101869.56
2023-02-08T06:54:38.885Z,101867.97
2023-02-08T06:55:20.529Z,101846.19
2023-02-08T06:56:02.264Z,101841.03
2023-02-08T06:56:44.002Z,101864.84
2023-02-08T06:57:25.965Z,101838.00
2023-02-08T06:58:07.641Z,101865.91
2023-02-08T06:58:49.319Z,101869.19
2023-02-08T06:59:31.097Z,101856.16
2023-02-08T07:00:13.276Z,101867.03
2023-02-08T07:00:54.935Z,101868.72
2023-02-08T07:01:36.805Z,101867.78
2023-02-08T07:02:20.917Z,101865.09
2023-02-08T07:03:02.626Z,101872.13
2023-02-08T07:03:44.363Z,101845.00
2023-02-08T07:04:26.178Z,101878.38
2023-02-08T07:05:08.076Z,101844.63
2023-02-08T07:06:04.240Z,101876.03
2023-02-08T07:06:52.462Z,101870.00
2023-02-08T07:07:34.211Z,101870.03
2023-02-08T07:08:16.071Z,101864.09
2023-02-08T07:08:57.801Z,101835.31
2023-02-08T07:09:39.826Z,101859.97
2023-02-08T07:10:21.675Z,101867.75
2023-02-08T07:11:11.640Z,101838.81
2023-02-08T07:11:53.407Z,101859.25
2023-02-08T07:12:36.463Z,101871.03
2023-02-08T07:13:18.181Z,101856.72
2023-02-08T07:14:00.003Z,101870.13
2023-02-08T07:14:43.496Z,101869.41
2023-02-08T07:15:25.144Z,101849.16
2023-02-08T07:16:08.307Z,101882.41
2023-02-08T07:16:49.983Z,101869.66
2023-02-08T07:17:31.713Z,101850.31
2023-02-08T07:18:13.406Z,101873.81
2023-02-08T07:18:55.119Z,101876.41
2023-02-08T07:19:47.370Z,101863.66
2023-02-08T07:20:48.863Z,101882.44
2023-02-08T07:21:30.651Z,101869.75
2023-02-08T07:22:12.423Z,101853.59
2023-02-08T07:22:54.237Z,101873.16
2023-02-08T07:23:35.975Z,101863.06
2023-02-08T07:24:17.739Z,101866.47
2023-02-08T07:24:59.497Z,101878.25
2023-02-08T07:25:41.135Z,101876.47
2023-02-08T07:26:22.798Z,101879.06
2023-02-08T07:27:05.706Z,101866.88
2023-02-08T07:27:47.413Z,101868.44
2023-02-08T07:28:29.519Z,101871.78
2023-02-08T07:29:11.216Z,101865.91
2023-02-08T07:29:53.003Z,101870.19
2023-02-08T07:30:34.716Z,101865.97
2023-02-08T07:31:18.080Z,101881.25
2023-02-08T07:32:01.260Z,101872.88
2023-02-08T07:32:43.013Z,101859.38
2023-02-08T07:33:25.515Z,101871.00
2023-02-08T07:34:07.281Z,101851.75
2023-02-08T07:34:48.954Z,101862.63
2023-02-08T07:35:30.607Z,101875.25
2023-02-08T07:36:12.543Z,101877.75
2023-02-08T07:36:54.213Z,101848.78
2023-02-08T07:37:35.860Z,101876.88
2023-02-08T07:38:20.638Z,101881.13
2023-02-08T07:39:02.968Z,101884.63
2023-02-08T07:39:44.656Z,101882.97
2023-02-08T07:40:26.427Z,101877.84
2023-02-08T07:41:11.056Z,101848.88
2023-02-08T07:41:53.126Z,101837.09
2023-02-08T07:42:35.225Z,101880.28
2023-02-08T07:43:27.358Z,101874.13
2023-02-08T07:44:13.897Z,101838.44
2023-02-08T07:44:55.562Z,101863.84
2023-02-08T07:45:38.741Z,101845.00
2023-02-08T07:46:21.852Z,101872.97
2023-02-08T07:47:04.534Z,101858.72
2023-02-08T07:47:46.651Z,101865.44
2023-02-08T07:48:28.411Z,101867.88
2023-02-08T07:49:10.189Z,101869.56
2023-02-08T07:49:51.841Z,101837.34
2023-02-08T07:50:33.612Z,101874.81
2023-02-08T07:51:15.662Z,101870.53
2023-02-08T07:51:57.292Z,101872.13
2023-02-08T07:52:38.962Z,101873.81
2023-02-08T07:53:20.641Z,101880.72
2023-02-08T07:54:02.762Z,101858.53
2023-02-08T07:54:44.512Z,101879.88
2023-02-08T07:55:27.558Z,101872.06
2023-02-08T07:56:10.449Z,101874.63
2023-02-08T07:56:53.036Z,101836.09
2023-02-08T07:57:35.511Z,101877.94
2023-02-08T07:58:17.215Z,101864.91
2023-02-08T07:58:59.141Z,101841.91
2023-02-08T07:59:40.845Z,101871.47
2023-02-08T08:00:22.900Z,101868.72
2023-02-08T08:01:19.683Z,101827.09
2023-02-08T08:02:03.768Z,101870.31
2023-02-08T08:02:56.111Z,101864.31
2023-02-08T08:03:38.200Z,101840.50
2023-02-08T08:04:20.162Z,101873.69
2023-02-08T08:05:01.886Z,101874.53
2023-02-08T08:05:43.590Z,101855.09
2023-02-08T08:06:25.277Z,101878.84
2023-02-08T08:07:06.940Z,101839.66
2023-02-08T08:07:48.603Z,101854.91
2023-02-08T08:08:30.464Z,101863.41
2023-02-08T08:09:12.304Z,101869.13
2023-02-08T08:09:54.076Z,101858.78
2023-02-08T08:10:36.084Z,101816.16
2023-02-08T08:11:20.025Z,101852.63
2023-02-08T08:12:02.713Z,101849.22
2023-02-08T08:12:44.434Z,101850.78
2023-02-08T08:13:26.166Z,101853.81
2023-02-08T08:14:07.882Z,101877.28
2023-02-08T08:14:50.136Z,101882.13
2023-02-08T08:15:31.936Z,101869.00
2023-02-08T08:16:13.669Z,101850.91
2023-02-08T08:16:55.440Z,101878.78
2023-02-08T08:17:37.196Z,101855.88
2023-02-08T08:18:18.906Z,101874.47
2023-02-08T08:19:00.568Z,101862.31
2023-02-08T08:19:42.326Z,101862.00
2023-02-08T08:20:24.301Z,101873.75
2023-02-08T08:21:06.586Z,101853.28
2023-02-08T08:21:48.281Z,101839.38
2023-02-08T08:22:30.001Z,101882.34
2023-02-08T08:23:11.701Z,101888.16
2023-02-08T08:23:55.406Z,101884.41
2023-02-08T08:24:37.540Z,101890.22
2023-02-08T08:25:19.400Z,101858.34
2023-02-08T08:26:01.085Z,101891.13
2023-02-08T08:26:42.921Z,101877.09
2023-02-08T08:27:24.612Z,101869.09
2023-02-08T08:28:06.328Z,101889.47
2023-02-08T08:28:49.044Z,101889.31
2023-02-08T08:29:34.899Z,101893.38
2023-02-08T08:30:17.294Z,101867.38
2023-02-08T08:30:59.218Z,101889.16